sensor_id;sensor_type;location;lat;lon;timestamp;P1;durP1;ratioP1;P2;durP2;ratioP2
21091;SDS011;10704;42.678;23.288;2023-05-07T00:02:06;24.80;;;14.18;;
21091;SDS011;10704;42.678;23.288;2023-05-07T00:04:32;20.17;;;12.38;;
21091;SDS011;10704;42.678;23.288;2023-05-07T00:07:02;17.65;;;11.00;;
21091;SDS011;10704;42.678;23.288;2023-05-07T00:09:28;17.23;;;10.43;;
21091;SDS011;10704;42.678;23.288;2023-05-07T00:11:54;15.68;;;11.50;;
21091;SDS011;10704;42.678;23.288;2023-05-07T00:14:20;14.57;;;9.55;;
21091;SDS011;10704;42.678;23.288;2023-05-07T00:16:46;16.27;;;9.75;;
21091;SDS011;10704;42.678;23.288;2023-05-07T00:19:12;12.60;;;9.40;;
21091;SDS011;10704;42.678;23.288;2023-05-07T00:21:37;14.25;;;9.63;;
21091;SDS011;10704;42.678;23.288;2023-05-07T00:24:03;15.38;;;10.23;;
21091;SDS011;10704;42.678;23.288;2023-05-07T00:26:30;17.67;;;10.40;;
21091;SDS011;10704;42.678;23.288;2023-05-07T00:28:56;14.45;;;9.73;;
21091;SDS011;10704;42.678;23.288;2023-05-07T00:31:21;17.45;;;10.68;;
21091;SDS011;10704;42.678;23.288;2023-05-07T00:33:47;17.65;;;10.20;;
21091;SDS011;10704;42.678;23.288;2023-05-07T00:36:16;22.00;;;10.60;;
21091;SDS011;10704;42.678;23.288;2023-05-07T00:38:42;15.55;;;10.32;;
21091;SDS011;10704;42.678;23.288;2023-05-07T00:41:08;15.15;;;10.25;;
21091;SDS011;10704;42.678;23.288;2023-05-07T00:43:33;15.68;;;10.32;;
21091;SDS011;10704;42.678;23.288;2023-05-07T00:45:59;19.50;;;11.35;;
21091;SDS011;10704;42.678;23.288;2023-05-07T00:48:26;17.58;;;10.70;;
21091;SDS011;10704;42.678;23.288;2023-05-07T00:50:52;16.52;;;10.32;;
21091;SDS011;10704;42.678;23.288;2023-05-07T00:53:18;20.48;;;11.15;;
21091;SDS011;10704;42.678;23.288;2023-05-07T00:55:45;15.70;;;10.63;;
21091;SDS011;10704;42.678;23.288;2023-05-07T00:58:11;14.35;;;10.48;;
21091;SDS011;10704;42.678;23.288;2023-05-07T01:00:37;26.58;;;11.20;;
21091;SDS011;10704;42.678;23.288;2023-05-07T01:03:03;13.35;;;10.02;;
21091;SDS011;10704;42.678;23.288;2023-05-07T01:05:30;19.55;;;10.90;;
21091;SDS011;10704;42.678;23.288;2023-05-07T01:07:56;15.98;;;10.50;;
21091;SDS011;10704;42.678;23.288;2023-05-07T01:10:23;19.33;;;11.70;;
21091;SDS011;10704;42.678;23.288;2023-05-07T01:12:50;17.73;;;12.13;;
21091;SDS011;10704;42.678;23.288;2023-05-07T01:15:16;16.05;;;11.38;;
21091;SDS011;10704;42.678;23.288;2023-05-07T01:17:43;21.08;;;12.05;;
21091;SDS011;10704;42.678;23.288;2023-05-07T01:20:18;17.80;;;11.65;;
21091;SDS011;10704;42.678;23.288;2023-05-07T01:22:46;20.83;;;13.35;;
21091;SDS011;10704;42.678;23.288;2023-05-07T01:25:13;17.98;;;12.43;;
21091;SDS011;10704;42.678;23.288;2023-05-07T01:27:45;18.15;;;12.52;;
21091;SDS011;10704;42.678;23.288;2023-05-07T01:30:11;19.10;;;12.93;;
21091;SDS011;10704;42.678;23.288;2023-05-07T01:35:20;22.85;;;12.88;;
21091;SDS011;10704;42.678;23.288;2023-05-07T01:37:50;23.05;;;13.45;;
21091;SDS011;10704;42.678;23.288;2023-05-07T01:40:16;22.85;;;13.10;;
21091;SDS011;10704;42.678;23.288;2023-05-07T01:42:43;19.23;;;12.18;;
21091;SDS011;10704;42.678;23.288;2023-05-07T01:45:09;20.73;;;11.57;;
21091;SDS011;10704;42.678;23.288;2023-05-07T01:47:36;14.40;;;10.75;;
21091;SDS011;10704;42.678;23.288;2023-05-07T01:50:03;15.57;;;11.13;;
21091;SDS011;10704;42.678;23.288;2023-05-07T01:52:36;18.42;;;11.27;;
21091;SDS011;10704;42.678;23.288;2023-05-07T01:55:04;17.73;;;12.07;;
21091;SDS011;10704;42.678;23.288;2023-05-07T01:57:31;14.95;;;10.77;;
21091;SDS011;10704;42.678;23.288;2023-05-07T01:59:56;19.33;;;11.45;;
21091;SDS011;10704;42.678;23.288;2023-05-07T02:02:22;16.58;;;10.30;;
21091;SDS011;10704;42.678;23.288;2023-05-07T02:04:49;20.30;;;11.70;;
21091;SDS011;10704;42.678;23.288;2023-05-07T02:07:16;18.00;;;11.25;;
21091;SDS011;10704;42.678;23.288;2023-05-07T02:09:41;17.13;;;9.70;;
21091;SDS011;10704;42.678;23.288;2023-05-07T02:12:07;16.45;;;9.07;;
21091;SDS011;10704;42.678;23.288;2023-05-07T02:14:33;11.35;;;8.30;;
21091;SDS011;10704;42.678;23.288;2023-05-07T02:16:59;14.45;;;9.07;;
21091;SDS011;10704;42.678;23.288;2023-05-07T02:19:25;13.52;;;9.15;;
21091;SDS011;10704;42.678;23.288;2023-05-07T02:21:51;14.88;;;9.02;;
21091;SDS011;10704;42.678;23.288;2023-05-07T02:24:16;12.50;;;8.48;;
21091;SDS011;10704;42.678;23.288;2023-05-07T02:26:42;12.07;;;8.38;;
21091;SDS011;10704;42.678;23.288;2023-05-07T02:29:08;14.15;;;8.95;;
21091;SDS011;10704;42.678;23.288;2023-05-07T02:31:36;13.18;;;9.00;;
21091;SDS011;10704;42.678;23.288;2023-05-07T02:34:01;13.38;;;8.57;;
21091;SDS011;10704;42.678;23.288;2023-05-07T02:36:27;14.38;;;8.98;;
21091;SDS011;10704;42.678;23.288;2023-05-07T02:39:00;13.95;;;9.27;;
21091;SDS011;10704;42.678;23.288;2023-05-07T02:41:27;14.77;;;9.55;;
21091;SDS011;10704;42.678;23.288;2023-05-07T02:43:53;11.30;;;8.73;;
21091;SDS011;10704;42.678;23.288;2023-05-07T02:46:20;16.63;;;9.55;;
21091;SDS011;10704;42.678;23.288;2023-05-07T02:48:51;16.33;;;10.60;;
21091;SDS011;10704;42.678;23.288;2023-05-07T02:51:21;16.98;;;9.63;;
21091;SDS011;10704;42.678;23.288;2023-05-07T02:53:48;20.98;;;12.40;;
21091;SDS011;10704;42.678;23.288;2023-05-07T02:56:14;20.42;;;11.98;;
21091;SDS011;10704;42.678;23.288;2023-05-07T02:58:40;19.90;;;12.13;;
21091;SDS011;10704;42.678;23.288;2023-05-07T03:01:08;17.80;;;11.50;;
21091;SDS011;10704;42.678;23.288;2023-05-07T03:03:43;18.70;;;11.20;;
21091;SDS011;10704;42.678;23.288;2023-05-07T03:06:09;19.73;;;11.52;;
21091;SDS011;10704;42.678;23.288;2023-05-07T03:08:35;16.67;;;11.57;;
21091;SDS011;10704;42.678;23.288;2023-05-07T03:11:02;19.98;;;12.38;;
21091;SDS011;10704;42.678;23.288;2023-05-07T03:13:28;21.45;;;11.43;;
21091;SDS011;10704;42.678;23.288;2023-05-07T03:15:54;20.73;;;12.02;;
21091;SDS011;10704;42.678;23.288;2023-05-07T03:18:20;17.95;;;11.95;;
21091;SDS011;10704;42.678;23.288;2023-05-07T03:20:46;22.52;;;11.65;;
21091;SDS011;10704;42.678;23.288;2023-05-07T03:23:14;18.58;;;11.52;;
21091;SDS011;10704;42.678;23.288;2023-05-07T03:25:40;17.35;;;11.40;;
21091;SDS011;10704;42.678;23.288;2023-05-07T03:28:05;17.02;;;10.90;;
21091;SDS011;10704;42.678;23.288;2023-05-07T03:30:47;16.98;;;11.38;;
21091;SDS011;10704;42.678;23.288;2023-05-07T03:33:13;17.98;;;11.77;;
21091;SDS011;10704;42.678;23.288;2023-05-07T03:35:39;20.95;;;10.88;;
21091;SDS011;10704;42.678;23.288;2023-05-07T03:38:05;19.25;;;11.25;;
21091;SDS011;10704;42.678;23.288;2023-05-07T03:40:33;16.77;;;10.43;;
21091;SDS011;10704;42.678;23.288;2023-05-07T03:43:00;15.43;;;10.10;;
21091;SDS011;10704;42.678;23.288;2023-05-07T03:45:28;15.63;;;9.90;;
21091;SDS011;10704;42.678;23.288;2023-05-07T03:48:07;16.95;;;11.73;;
21091;SDS011;10704;42.678;23.288;2023-05-07T03:50:33;18.38;;;11.02;;
21091;SDS011;10704;42.678;23.288;2023-05-07T03:52:58;17.50;;;9.75;;
21091;SDS011;10704;42.678;23.288;2023-05-07T03:55:25;18.15;;;10.75;;
21091;SDS011;10704;42.678;23.288;2023-05-07T03:57:59;16.63;;;10.52;;
21091;SDS011;10704;42.678;23.288;2023-05-07T04:00:26;13.48;;;9.45;;
21091;SDS011;10704;42.678;23.288;2023-05-07T04:02:57;15.90;;;10.00;;
21091;SDS011;10704;42.678;23.288;2023-05-07T04:05:25;16.85;;;10.38;;
21091;SDS011;10704;42.678;23.288;2023-05-07T04:07:59;13.80;;;9.52;;
21091;SDS011;10704;42.678;23.288;2023-05-07T04:10:32;15.77;;;10.35;;
21091;SDS011;10704;42.678;23.288;2023-05-07T04:13:02;16.40;;;9.90;;
21091;SDS011;10704;42.678;23.288;2023-05-07T04:15:28;14.00;;;9.80;;
21091;SDS011;10704;42.678;23.288;2023-05-07T04:17:54;16.88;;;10.60;;
21091;SDS011;10704;42.678;23.288;2023-05-07T04:20:22;15.43;;;10.18;;
21091;SDS011;10704;42.678;23.288;2023-05-07T04:22:55;15.48;;;10.43;;
21091;SDS011;10704;42.678;23.288;2023-05-07T04:25:21;16.60;;;11.25;;
21091;SDS011;10704;42.678;23.288;2023-05-07T04:27:55;18.88;;;11.48;;
21091;SDS011;10704;42.678;23.288;2023-05-07T04:30:25;16.15;;;11.07;;
21091;SDS011;10704;42.678;23.288;2023-05-07T04:32:51;17.58;;;11.45;;
21091;SDS011;10704;42.678;23.288;2023-05-07T04:35:18;15.55;;;10.85;;
21091;SDS011;10704;42.678;23.288;2023-05-07T04:37:44;20.25;;;10.82;;
21091;SDS011;10704;42.678;23.288;2023-05-07T04:40:12;16.77;;;11.52;;
21091;SDS011;10704;42.678;23.288;2023-05-07T04:42:38;16.85;;;11.27;;
21091;SDS011;10704;42.678;23.288;2023-05-07T04:45:04;18.02;;;10.82;;
21091;SDS011;10704;42.678;23.288;2023-05-07T04:47:32;21.63;;;11.25;;
21091;SDS011;10704;42.678;23.288;2023-05-07T04:50:00;18.25;;;10.60;;
21091;SDS011;10704;42.678;23.288;2023-05-07T04:52:26;21.73;;;11.43;;
21091;SDS011;10704;42.678;23.288;2023-05-07T04:54:52;18.77;;;11.20;;
21091;SDS011;10704;42.678;23.288;2023-05-07T04:57:18;17.20;;;10.68;;
21091;SDS011;10704;42.678;23.288;2023-05-07T04:59:44;20.63;;;11.68;;
21091;SDS011;10704;42.678;23.288;2023-05-07T05:02:11;15.93;;;10.68;;
21091;SDS011;10704;42.678;23.288;2023-05-07T05:04:37;18.73;;;10.77;;
21091;SDS011;10704;42.678;23.288;2023-05-07T05:07:04;17.88;;;10.52;;
21091;SDS011;10704;42.678;23.288;2023-05-07T05:09:30;18.95;;;10.38;;
21091;SDS011;10704;42.678;23.288;2023-05-07T05:11:56;17.77;;;11.15;;
21091;SDS011;10704;42.678;23.288;2023-05-07T05:14:22;17.40;;;10.60;;
21091;SDS011;10704;42.678;23.288;2023-05-07T05:16:49;19.17;;;11.73;;
21091;SDS011;10704;42.678;23.288;2023-05-07T05:19:15;16.20;;;11.15;;
21091;SDS011;10704;42.678;23.288;2023-05-07T05:21:43;16.20;;;11.10;;
21091;SDS011;10704;42.678;23.288;2023-05-07T05:24:09;14.60;;;10.05;;
21091;SDS011;10704;42.678;23.288;2023-05-07T05:26:35;13.40;;;10.13;;
21091;SDS011;10704;42.678;23.288;2023-05-07T05:29:01;16.90;;;11.32;;
21091;SDS011;10704;42.678;23.288;2023-05-07T05:31:29;16.20;;;10.13;;
21091;SDS011;10704;42.678;23.288;2023-05-07T05:33:55;18.15;;;10.43;;
21091;SDS011;10704;42.678;23.288;2023-05-07T05:36:21;15.93;;;10.73;;
21091;SDS011;10704;42.678;23.288;2023-05-07T05:38:49;18.00;;;10.48;;
21091;SDS011;10704;42.678;23.288;2023-05-07T05:41:15;18.60;;;10.55;;
21091;SDS011;10704;42.678;23.288;2023-05-07T05:43:41;15.82;;;10.85;;
21091;SDS011;10704;42.678;23.288;2023-05-07T05:46:07;18.73;;;11.80;;
21091;SDS011;10704;42.678;23.288;2023-05-07T05:48:34;17.08;;;10.80;;
21091;SDS011;10704;42.678;23.288;2023-05-07T05:51:02;16.65;;;10.73;;
21091;SDS011;10704;42.678;23.288;2023-05-07T05:53:27;14.98;;;9.65;;
21091;SDS011;10704;42.678;23.288;2023-05-07T05:55:53;14.70;;;10.38;;
21091;SDS011;10704;42.678;23.288;2023-05-07T05:58:20;15.75;;;11.10;;
21091;SDS011;10704;42.678;23.288;2023-05-07T06:00:51;16.63;;;10.50;;
21091;SDS011;10704;42.678;23.288;2023-05-07T06:03:20;18.77;;;10.38;;
21091;SDS011;10704;42.678;23.288;2023-05-07T06:05:47;14.73;;;10.10;;
21091;SDS011;10704;42.678;23.288;2023-05-07T06:08:13;13.48;;;9.25;;
21091;SDS011;10704;42.678;23.288;2023-05-07T06:10:39;17.40;;;10.57;;
21091;SDS011;10704;42.678;23.288;2023-05-07T06:13:07;18.42;;;10.30;;
21091;SDS011;10704;42.678;23.288;2023-05-07T06:15:34;14.10;;;10.18;;
21091;SDS011;10704;42.678;23.288;2023-05-07T06:18:05;15.65;;;10.23;;
21091;SDS011;10704;42.678;23.288;2023-05-07T06:20:31;13.13;;;9.82;;
21091;SDS011;10704;42.678;23.288;2023-05-07T06:22:59;15.43;;;10.20;;
21091;SDS011;10704;42.678;23.288;2023-05-07T06:25:25;13.35;;;9.05;;
21091;SDS011;10704;42.678;23.288;2023-05-07T06:27:51;12.88;;;9.20;;
21091;SDS011;10704;42.678;23.288;2023-05-07T06:30:17;16.55;;;10.05;;
21091;SDS011;10704;42.678;23.288;2023-05-07T06:32:42;15.70;;;9.77;;
21091;SDS011;10704;42.678;23.288;2023-05-07T06:35:09;15.43;;;10.35;;
21091;SDS011;10704;42.678;23.288;2023-05-07T06:37:37;13.10;;;9.25;;
21091;SDS011;10704;42.678;23.288;2023-05-07T06:40:06;14.43;;;9.27;;
21091;SDS011;10704;42.678;23.288;2023-05-07T06:42:37;16.23;;;9.38;;
21091;SDS011;10704;42.678;23.288;2023-05-07T06:45:35;14.15;;;9.75;;
21091;SDS011;10704;42.678;23.288;2023-05-07T06:48:02;13.57;;;9.95;;
21091;SDS011;10704;42.678;23.288;2023-05-07T06:50:32;14.90;;;9.85;;
21091;SDS011;10704;42.678;23.288;2023-05-07T06:52:58;15.05;;;9.95;;
21091;SDS011;10704;42.678;23.288;2023-05-07T06:55:24;13.40;;;8.75;;
21091;SDS011;10704;42.678;23.288;2023-05-07T06:57:51;14.45;;;9.60;;
21091;SDS011;10704;42.678;23.288;2023-05-07T07:00:19;15.50;;;8.98;;
21091;SDS011;10704;42.678;23.288;2023-05-07T07:02:50;12.00;;;8.90;;
21091;SDS011;10704;42.678;23.288;2023-05-07T07:05:19;14.75;;;9.75;;
21091;SDS011;10704;42.678;23.288;2023-05-07T07:07:45;14.90;;;9.60;;
21091;SDS011;10704;42.678;23.288;2023-05-07T07:10:21;13.48;;;9.20;;
21091;SDS011;10704;42.678;23.288;2023-05-07T07:12:49;15.40;;;8.15;;
21091;SDS011;10704;42.678;23.288;2023-05-07T07:15:16;10.05;;;7.68;;
21091;SDS011;10704;42.678;23.288;2023-05-07T07:17:42;11.25;;;7.85;;
21091;SDS011;10704;42.678;23.288;2023-05-07T07:20:08;10.02;;;5.93;;
21091;SDS011;10704;42.678;23.288;2023-05-07T07:22:34;11.80;;;7.57;;
21091;SDS011;10704;42.678;23.288;2023-05-07T07:25:00;8.75;;;6.10;;
21091;SDS011;10704;42.678;23.288;2023-05-07T07:27:27;9.68;;;6.50;;
21091;SDS011;10704;42.678;23.288;2023-05-07T07:29:53;11.40;;;6.68;;
21091;SDS011;10704;42.678;23.288;2023-05-07T07:32:19;10.98;;;6.72;;
21091;SDS011;10704;42.678;23.288;2023-05-07T07:34:45;10.20;;;6.40;;
21091;SDS011;10704;42.678;23.288;2023-05-07T07:37:12;8.35;;;6.28;;
21091;SDS011;10704;42.678;23.288;2023-05-07T07:39:37;8.70;;;6.32;;
21091;SDS011;10704;42.678;23.288;2023-05-07T07:42:05;12.55;;;6.72;;
21091;SDS011;10704;42.678;23.288;2023-05-07T07:44:31;12.38;;;7.75;;
21091;SDS011;10704;42.678;23.288;2023-05-07T07:47:02;12.73;;;8.73;;
21091;SDS011;10704;42.678;23.288;2023-05-07T07:49:29;10.85;;;7.47;;
21091;SDS011;10704;42.678;23.288;2023-05-07T07:51:57;13.00;;;7.95;;
21091;SDS011;10704;42.678;23.288;2023-05-07T07:54:25;11.13;;;8.82;;
21091;SDS011;10704;42.678;23.288;2023-05-07T07:56:51;12.30;;;8.05;;
21091;SDS011;10704;42.678;23.288;2023-05-07T07:59:17;15.95;;;8.10;;
21091;SDS011;10704;42.678;23.288;2023-05-07T08:01:45;15.18;;;8.43;;
21091;SDS011;10704;42.678;23.288;2023-05-07T08:04:13;13.07;;;8.23;;
21091;SDS011;10704;42.678;23.288;2023-05-07T08:06:40;9.70;;;6.95;;
21091;SDS011;10704;42.678;23.288;2023-05-07T08:09:08;12.43;;;8.18;;
21091;SDS011;10704;42.678;23.288;2023-05-07T08:11:35;10.27;;;7.35;;
21091;SDS011;10704;42.678;23.288;2023-05-07T08:14:02;13.85;;;8.10;;
21091;SDS011;10704;42.678;23.288;2023-05-07T08:16:28;12.15;;;7.40;;
21091;SDS011;10704;42.678;23.288;2023-05-07T08:18:54;12.80;;;7.40;;
21091;SDS011;10704;42.678;23.288;2023-05-07T08:21:20;12.48;;;8.70;;
21091;SDS011;10704;42.678;23.288;2023-05-07T08:23:46;14.07;;;8.38;;
21091;SDS011;10704;42.678;23.288;2023-05-07T08:26:12;11.07;;;8.10;;
21091;SDS011;10704;42.678;23.288;2023-05-07T08:28:38;19.58;;;9.52;;
21091;SDS011;10704;42.678;23.288;2023-05-07T08:31:04;11.32;;;7.30;;
21091;SDS011;10704;42.678;23.288;2023-05-07T08:33:34;11.13;;;8.60;;
21091;SDS011;10704;42.678;23.288;2023-05-07T08:36:00;11.45;;;7.78;;
21091;SDS011;10704;42.678;23.288;2023-05-07T08:38:26;12.13;;;8.13;;
21091;SDS011;10704;42.678;23.288;2023-05-07T08:40:52;12.70;;;8.27;;
21091;SDS011;10704;42.678;23.288;2023-05-07T08:43:19;10.55;;;7.53;;
21091;SDS011;10704;42.678;23.288;2023-05-07T08:45:46;12.13;;;8.02;;
21091;SDS011;10704;42.678;23.288;2023-05-07T08:48:16;10.32;;;6.75;;
21091;SDS011;10704;42.678;23.288;2023-05-07T08:50:49;14.52;;;8.05;;
21091;SDS011;10704;42.678;23.288;2023-05-07T08:53:15;10.75;;;7.10;;
21091;SDS011;10704;42.678;23.288;2023-05-07T08:55:42;8.43;;;6.35;;
21091;SDS011;10704;42.678;23.288;2023-05-07T08:58:08;7.85;;;5.95;;
21091;SDS011;10704;42.678;23.288;2023-05-07T09:00:38;8.52;;;6.28;;
21091;SDS011;10704;42.678;23.288;2023-05-07T09:03:06;9.88;;;6.63;;
21091;SDS011;10704;42.678;23.288;2023-05-07T09:05:32;10.73;;;6.25;;
21091;SDS011;10704;42.678;23.288;2023-05-07T09:07:59;11.32;;;7.30;;
21091;SDS011;10704;42.678;23.288;2023-05-07T09:10:25;8.25;;;5.68;;
21091;SDS011;10704;42.678;23.288;2023-05-07T09:12:52;10.52;;;6.65;;
21091;SDS011;10704;42.678;23.288;2023-05-07T09:15:18;8.65;;;6.25;;
21091;SDS011;10704;42.678;23.288;2023-05-07T09:17:44;8.60;;;6.28;;
21091;SDS011;10704;42.678;23.288;2023-05-07T09:20:10;8.18;;;6.65;;
21091;SDS011;10704;42.678;23.288;2023-05-07T09:22:36;11.35;;;6.18;;
21091;SDS011;10704;42.678;23.288;2023-05-07T09:25:08;8.73;;;6.65;;
21091;SDS011;10704;42.678;23.288;2023-05-07T09:27:36;9.05;;;5.95;;
21091;SDS011;10704;42.678;23.288;2023-05-07T09:30:03;8.60;;;5.70;;
21091;SDS011;10704;42.678;23.288;2023-05-07T09:32:34;9.50;;;5.72;;
21091;SDS011;10704;42.678;23.288;2023-05-07T09:35:01;9.85;;;5.30;;
21091;SDS011;10704;42.678;23.288;2023-05-07T09:37:28;9.52;;;6.28;;
21091;SDS011;10704;42.678;23.288;2023-05-07T09:39:56;9.35;;;5.72;;
21091;SDS011;10704;42.678;23.288;2023-05-07T09:42:24;7.95;;;5.47;;
21091;SDS011;10704;42.678;23.288;2023-05-07T09:44:53;7.25;;;5.07;;
21091;SDS011;10704;42.678;23.288;2023-05-07T09:47:23;7.13;;;4.65;;
21091;SDS011;10704;42.678;23.288;2023-05-07T09:49:53;9.90;;;5.90;;
21091;SDS011;10704;42.678;23.288;2023-05-07T09:52:23;6.90;;;4.70;;
21091;SDS011;10704;42.678;23.288;2023-05-07T09:54:52;8.40;;;5.13;;
21091;SDS011;10704;42.678;23.288;2023-05-07T09:57:23;6.80;;;4.97;;
21091;SDS011;10704;42.678;23.288;2023-05-07T09:59:54;7.10;;;4.82;;
21091;SDS011;10704;42.678;23.288;2023-05-07T10:02:25;8.93;;;5.18;;
21091;SDS011;10704;42.678;23.288;2023-05-07T10:04:54;9.45;;;4.82;;
21091;SDS011;10704;42.678;23.288;2023-05-07T10:07:26;9.25;;;4.47;;
21091;SDS011;10704;42.678;23.288;2023-05-07T10:09:56;8.25;;;4.80;;
21091;SDS011;10704;42.678;23.288;2023-05-07T10:12:30;11.95;;;4.70;;
21091;SDS011;10704;42.678;23.288;2023-05-07T10:17:52;5.95;;;4.28;;
21091;SDS011;10704;42.678;23.288;2023-05-07T10:20:19;7.50;;;4.38;;
21091;SDS011;10704;42.678;23.288;2023-05-07T10:22:47;8.60;;;4.93;;
21091;SDS011;10704;42.678;23.288;2023-05-07T10:25:22;7.95;;;4.72;;
21091;SDS011;10704;42.678;23.288;2023-05-07T10:27:54;7.95;;;4.80;;
21091;SDS011;10704;42.678;23.288;2023-05-07T10:30:26;5.80;;;4.63;;
21091;SDS011;10704;42.678;23.288;2023-05-07T10:32:56;5.82;;;4.00;;
21091;SDS011;10704;42.678;23.288;2023-05-07T10:35:31;4.93;;;3.50;;
21091;SDS011;10704;42.678;23.288;2023-05-07T10:38:06;7.57;;;4.55;;
21091;SDS011;10704;42.678;23.288;2023-05-07T10:40:35;7.35;;;4.18;;
21091;SDS011;10704;42.678;23.288;2023-05-07T10:43:03;6.53;;;4.07;;
21091;SDS011;10704;42.678;23.288;2023-05-07T10:45:36;6.30;;;3.85;;
21091;SDS011;10704;42.678;23.288;2023-05-07T10:48:11;6.57;;;4.28;;
21091;SDS011;10704;42.678;23.288;2023-05-07T10:50:44;6.78;;;4.38;;
21091;SDS011;10704;42.678;23.288;2023-05-07T10:55:47;7.57;;;4.45;;
21091;SDS011;10704;42.678;23.288;2023-05-07T11:00:56;6.20;;;4.47;;
21091;SDS011;10704;42.678;23.288;2023-05-07T11:03:28;7.63;;;4.57;;
21091;SDS011;10704;42.678;23.288;2023-05-07T11:06:08;7.40;;;4.22;;
21091;SDS011;10704;42.678;23.288;2023-05-07T11:11:43;9.50;;;5.20;;
21091;SDS011;10704;42.678;23.288;2023-05-07T11:17:11;7.68;;;4.88;;
21091;SDS011;10704;42.678;23.288;2023-05-07T11:19:51;6.63;;;3.97;;
21091;SDS011;10704;42.678;23.288;2023-05-07T11:22:36;7.05;;;4.13;;
21091;SDS011;10704;42.678;23.288;2023-05-07T11:25:27;6.25;;;3.88;;
21091;SDS011;10704;42.678;23.288;2023-05-07T11:28:09;11.60;;;4.22;;
21091;SDS011;10704;42.678;23.288;2023-05-07T11:30:41;7.18;;;4.40;;
21091;SDS011;10704;42.678;23.288;2023-05-07T11:33:10;5.97;;;3.88;;
21091;SDS011;10704;42.678;23.288;2023-05-07T11:35:37;5.03;;;4.05;;
21091;SDS011;10704;42.678;23.288;2023-05-07T11:38:06;6.88;;;4.28;;
21091;SDS011;10704;42.678;23.288;2023-05-07T11:40:33;8.15;;;4.72;;
21091;SDS011;10704;42.678;23.288;2023-05-07T11:42:59;6.63;;;4.00;;
21091;SDS011;10704;42.678;23.288;2023-05-07T11:45:39;7.93;;;4.43;;
21091;SDS011;10704;42.678;23.288;2023-05-07T11:48:05;8.80;;;6.00;;
21091;SDS011;10704;42.678;23.288;2023-05-07T11:50:30;12.85;;;9.00;;
21091;SDS011;10704;42.678;23.288;2023-05-07T11:52:56;6.07;;;4.25;;
21091;SDS011;10704;42.678;23.288;2023-05-07T11:55:23;7.78;;;4.78;;
21091;SDS011;10704;42.678;23.288;2023-05-07T11:57:51;6.93;;;4.53;;
21091;SDS011;10704;42.678;23.288;2023-05-07T12:00:17;5.05;;;3.90;;
21091;SDS011;10704;42.678;23.288;2023-05-07T12:02:44;6.82;;;4.00;;
21091;SDS011;10704;42.678;23.288;2023-05-07T12:05:10;5.68;;;4.03;;
21091;SDS011;10704;42.678;23.288;2023-05-07T12:07:36;4.55;;;3.50;;
21091;SDS011;10704;42.678;23.288;2023-05-07T12:10:05;6.97;;;3.83;;
21091;SDS011;10704;42.678;23.288;2023-05-07T12:12:37;7.45;;;4.25;;
21091;SDS011;10704;42.678;23.288;2023-05-07T12:15:09;6.05;;;3.85;;
21091;SDS011;10704;42.678;23.288;2023-05-07T12:17:35;7.93;;;3.80;;
21091;SDS011;10704;42.678;23.288;2023-05-07T12:20:02;8.27;;;5.50;;
21091;SDS011;10704;42.678;23.288;2023-05-07T12:22:28;4.80;;;3.58;;
21091;SDS011;10704;42.678;23.288;2023-05-07T12:24:57;6.50;;;3.88;;
21091;SDS011;10704;42.678;23.288;2023-05-07T12:27:25;5.03;;;3.45;;
21091;SDS011;10704;42.678;23.288;2023-05-07T12:29:51;6.45;;;4.00;;
21091;SDS011;10704;42.678;23.288;2023-05-07T12:32:18;6.13;;;3.90;;
21091;SDS011;10704;42.678;23.288;2023-05-07T12:34:45;7.72;;;3.70;;
21091;SDS011;10704;42.678;23.288;2023-05-07T12:37:12;4.40;;;3.42;;
21091;SDS011;10704;42.678;23.288;2023-05-07T12:39:43;5.28;;;3.40;;
21091;SDS011;10704;42.678;23.288;2023-05-07T12:42:14;8.70;;;3.50;;
21091;SDS011;10704;42.678;23.288;2023-05-07T12:44:41;4.95;;;2.97;;
21091;SDS011;10704;42.678;23.288;2023-05-07T12:47:10;6.22;;;3.60;;
21091;SDS011;10704;42.678;23.288;2023-05-07T12:49:36;4.38;;;3.50;;
21091;SDS011;10704;42.678;23.288;2023-05-07T12:52:04;4.53;;;3.17;;
21091;SDS011;10704;42.678;23.288;2023-05-07T12:54:31;6.65;;;3.70;;
21091;SDS011;10704;42.678;23.288;2023-05-07T12:57:02;4.95;;;3.33;;
21091;SDS011;10704;42.678;23.288;2023-05-07T12:59:38;7.68;;;3.25;;
21091;SDS011;10704;42.678;23.288;2023-05-07T13:02:05;5.20;;;3.13;;
21091;SDS011;10704;42.678;23.288;2023-05-07T13:04:33;4.88;;;3.22;;
21091;SDS011;10704;42.678;23.288;2023-05-07T13:07:00;15.13;;;8.40;;
21091;SDS011;10704;42.678;23.288;2023-05-07T13:09:26;7.88;;;3.90;;
21091;SDS011;10704;42.678;23.288;2023-05-07T13:11:54;23.13;;;18.58;;
21091;SDS011;10704;42.678;23.288;2023-05-07T13:14:20;11.52;;;6.90;;
21091;SDS011;10704;42.678;23.288;2023-05-07T13:16:46;9.40;;;5.70;;
21091;SDS011;10704;42.678;23.288;2023-05-07T13:19:12;6.20;;;3.80;;
21091;SDS011;10704;42.678;23.288;2023-05-07T13:21:39;6.68;;;4.20;;
21091;SDS011;10704;42.678;23.288;2023-05-07T13:24:04;7.13;;;4.10;;
21091;SDS011;10704;42.678;23.288;2023-05-07T13:26:34;5.57;;;4.18;;
21091;SDS011;10704;42.678;23.288;2023-05-07T13:29:00;5.63;;;3.40;;
21091;SDS011;10704;42.678;23.288;2023-05-07T13:31:26;5.75;;;3.30;;
21091;SDS011;10704;42.678;23.288;2023-05-07T13:33:51;7.43;;;4.13;;
21091;SDS011;10704;42.678;23.288;2023-05-07T13:36:17;5.00;;;3.30;;
21091;SDS011;10704;42.678;23.288;2023-05-07T13:38:43;7.18;;;3.33;;
21091;SDS011;10704;42.678;23.288;2023-05-07T13:41:09;7.40;;;3.47;;
21091;SDS011;10704;42.678;23.288;2023-05-07T13:43:35;5.57;;;3.20;;
21091;SDS011;10704;42.678;23.288;2023-05-07T13:46:00;4.50;;;2.92;;
21091;SDS011;10704;42.678;23.288;2023-05-07T13:48:26;5.13;;;3.47;;
21091;SDS011;10704;42.678;23.288;2023-05-07T13:50:53;4.53;;;3.20;;
21091;SDS011;10704;42.678;23.288;2023-05-07T13:53:19;6.53;;;3.50;;
21091;SDS011;10704;42.678;23.288;2023-05-07T13:55:45;6.28;;;3.55;;
21091;SDS011;10704;42.678;23.288;2023-05-07T13:58:11;5.15;;;3.20;;
21091;SDS011;10704;42.678;23.288;2023-05-07T14:00:37;6.43;;;2.80;;
21091;SDS011;10704;42.678;23.288;2023-05-07T14:03:03;5.15;;;3.00;;
21091;SDS011;10704;42.678;23.288;2023-05-07T14:05:30;5.78;;;3.65;;
21091;SDS011;10704;42.678;23.288;2023-05-07T14:07:58;6.28;;;3.08;;
21091;SDS011;10704;42.678;23.288;2023-05-07T14:10:25;4.88;;;3.22;;
21091;SDS011;10704;42.678;23.288;2023-05-07T14:12:51;5.47;;;3.88;;
21091;SDS011;10704;42.678;23.288;2023-05-07T14:15:17;5.25;;;3.55;;
21091;SDS011;10704;42.678;23.288;2023-05-07T14:17:44;7.57;;;3.13;;
21091;SDS011;10704;42.678;23.288;2023-05-07T14:20:10;4.90;;;3.20;;
21091;SDS011;10704;42.678;23.288;2023-05-07T14:22:37;3.75;;;3.03;;
21091;SDS011;10704;42.678;23.288;2023-05-07T14:25:03;5.00;;;3.20;;
21091;SDS011;10704;42.678;23.288;2023-05-07T14:27:29;5.88;;;4.10;;
21091;SDS011;10704;42.678;23.288;2023-05-07T14:29:55;5.97;;;4.10;;
21091;SDS011;10704;42.678;23.288;2023-05-07T14:32:21;8.18;;;3.80;;
21091;SDS011;10704;42.678;23.288;2023-05-07T14:34:47;5.75;;;3.45;;
21091;SDS011;10704;42.678;23.288;2023-05-07T14:37:13;5.18;;;3.10;;
21091;SDS011;10704;42.678;23.288;2023-05-07T14:39:39;6.07;;;3.63;;
21091;SDS011;10704;42.678;23.288;2023-05-07T14:42:05;6.60;;;3.47;;